createdAt,value
2023-05-10T00:00:32.243Z,14.60
2023-05-10T00:02:58.960Z,14.60
2023-05-10T00:05:25.652Z,14.60
2023-05-10T00:07:52.303Z,14.60
2023-05-10T00:10:19.171Z,14.60
2023-05-10T00:12:45.901Z,14.60
2023-05-10T00:15:12.618Z,14.60
2023-05-10T00:17:40.096Z,14.60
2023-05-10T00:20:07.469Z,14.60
2023-05-10T00:22:34.188Z,14.60
2023-05-10T00:25:00.905Z,14.60
2023-05-10T00:27:27.519Z,14.50
2023-05-10T00:29:54.200Z,14.50
2023-05-10T00:32:22.023Z,14.60
2023-05-10T00:34:48.730Z,14.50
2023-05-10T00:37:15.394Z,14.50
2023-05-10T00:39:42.042Z,14.50
2023-05-10T00:42:08.689Z,14.50
2023-05-10T00:44:35.384Z,14.50
2023-05-10T00:47:02.095Z,14.50
2023-05-10T00:49:29.711Z,14.50
2023-05-10T00:51:56.721Z,14.50
2023-05-10T00:54:23.390Z,14.50
2023-05-10T00:56:50.334Z,14.50
2023-05-10T00:59:18.067Z,14.40
2023-05-10T01:01:47.982Z,14.50
2023-05-10T01:04:15.635Z,14.50
2023-05-10T01:06:43.253Z,14.50
2023-05-10T01:09:10.663Z,14.50
2023-05-10T01:11:39.604Z,14.50
2023-05-10T01:14:06.982Z,14.50
2023-05-10T01:16:39.162Z,14.50
2023-05-10T01:19:19.724Z,14.50
2023-05-10T01:22:25.468Z,14.60
2023-05-10T01:25:19.320Z,14.60
2023-05-10T01:27:56.561Z,14.60
2023-05-10T01:31:07.741Z,14.60
2023-05-10T01:33:49.508Z,14.60
2023-05-10T01:36:35.981Z,14.60
2023-05-10T01:39:15.287Z,14.60
2023-05-10T01:41:53.933Z,14.60
2023-05-10T01:44:40.221Z,14.60
2023-05-10T01:47:17.708Z,14.60
2023-05-10T01:49:51.612Z,14.60
2023-05-10T01:52:21.873Z,14.60
2023-05-10T01:55:01.221Z,14.60
2023-05-10T01:57:32.824Z,14.60
2023-05-10T02:00:00.490Z,14.60
2023-05-10T02:02:29.290Z,14.60
2023-05-10T02:04:57.991Z,14.50
2023-05-10T02:07:25.594Z,14.50
2023-05-10T02:09:52.701Z,14.50
2023-05-10T02:12:20.649Z,14.40
2023-05-10T02:14:49.051Z,14.40
2023-05-10T02:17:16.407Z,14.30
2023-05-10T02:19:46.281Z,14.30
2023-05-10T02:22:13.765Z,14.20
2023-05-10T02:24:41.108Z,14.20
2023-05-10T02:27:09.506Z,14.10
2023-05-10T02:29:37.821Z,14.10
2023-05-10T02:32:05.205Z,14.10
2023-05-10T02:34:33.235Z,14.10
2023-05-10T02:37:01.603Z,14.10
2023-05-10T02:39:30.494Z,14.20
2023-05-10T02:41:58.413Z,14.20
2023-05-10T02:44:29.211Z,14.20
2023-05-10T02:46:56.950Z,14.30
2023-05-10T02:49:23.772Z,14.30
2023-05-10T02:51:56.125Z,14.30
2023-05-10T02:54:28.364Z,14.30
2023-05-10T02:57:02.705Z,14.30
2023-05-10T02:59:29.404Z,14.30
2023-05-10T03:01:56.204Z,14.30
2023-05-10T03:04:23.130Z,14.30
2023-05-10T03:06:49.916Z,14.30
2023-05-10T03:09:16.674Z,14.30
2023-05-10T03:11:57.683Z,14.30
2023-05-10T03:14:30.304Z,14.30
2023-05-10T03:17:12.392Z,14.30
2023-05-10T03:20:04.283Z,14.30
2023-05-10T03:22:39.246Z,14.20
2023-05-10T03:25:09.243Z,14.30
2023-05-10T03:27:37.729Z,14.20
2023-05-10T03:30:06.218Z,14.20
2023-05-10T03:32:35.344Z,14.20
2023-05-10T03:35:02.511Z,14.10
2023-05-10T03:37:29.132Z,14.10
2023-05-10T03:39:55.869Z,14.10
2023-05-10T03:42:22.540Z,14.10
2023-05-10T03:44:50.360Z,14.10
2023-05-10T03:47:16.993Z,14.10
2023-05-10T03:49:43.990Z,14.10
2023-05-10T03:52:10.570Z,14.10
2023-05-10T03:54:37.198Z,14.10
2023-05-10T03:57:03.934Z,14.10
2023-05-10T03:59:31.042Z,14.10
2023-05-10T04:01:57.682Z,14.10
2023-05-10T04:04:24.382Z,14.10
2023-05-10T04:06:51.048Z,14.20
2023-05-10T04:09:18.114Z,14.20
2023-05-10T04:11:44.776Z,14.20
2023-05-10T04:14:11.521Z,14.20
2023-05-10T04:16:38.180Z,14.20
2023-05-10T04:19:05.055Z,14.20
2023-05-10T04:21:31.789Z,14.20
2023-05-10T04:23:58.429Z,14.20
2023-05-10T04:26:26.456Z,14.30
2023-05-10T04:28:53.106Z,14.30
2023-05-10T04:31:19.868Z,14.40
2023-05-10T04:33:46.564Z,14.40
2023-05-10T04:36:13.186Z,14.50
2023-05-10T04:38:39.810Z,14.50
2023-05-10T04:41:11.332Z,14.50
2023-05-10T04:43:38.894Z,14.60
2023-05-10T04:46:06.879Z,14.60
2023-05-10T04:48:33.707Z,14.60
2023-05-10T04:51:00.626Z,14.60
2023-05-10T04:53:27.549Z,14.60
2023-05-10T04:55:54.241Z,14.60
2023-05-10T04:58:20.948Z,14.60
2023-05-10T05:00:47.614Z,14.60
2023-05-10T05:03:14.352Z,14.70
2023-05-10T05:05:41.013Z,14.70
2023-05-10T05:08:07.744Z,14.70
2023-05-10T05:10:34.360Z,14.70
2023-05-10T05:13:01.116Z,14.80
2023-05-10T05:15:28.337Z,14.70
2023-05-10T05:17:54.977Z,14.80
2023-05-10T05:20:22.158Z,14.70
2023-05-10T05:22:48.856Z,14.80
2023-05-10T05:25:16.152Z,14.70
2023-05-10T05:27:42.830Z,14.70
2023-05-10T05:30:09.962Z,14.70
2023-05-10T05:32:36.723Z,14.70
2023-05-10T05:35:03.553Z,14.70
2023-05-10T05:37:30.344Z,14.70
2023-05-10T05:39:57.038Z,14.60
2023-05-10T05:42:23.778Z,14.50
2023-05-10T05:44:50.555Z,14.60
2023-05-10T05:47:17.206Z,14.60
2023-05-10T05:49:46.574Z,14.60
2023-05-10T05:52:13.272Z,14.60
2023-05-10T05:54:39.991Z,14.60
2023-05-10T05:57:06.887Z,14.70
2023-05-10T05:59:33.525Z,14.80
2023-05-10T06:02:00.306Z,14.90
2023-05-10T06:04:27.073Z,15.00
2023-05-10T06:06:53.812Z,15.00
2023-05-10T06:09:20.474Z,15.10
2023-05-10T06:11:47.609Z,15.10
2023-05-10T06:14:14.250Z,15.10
2023-05-10T06:16:41.460Z,15.20
2023-05-10T06:19:08.273Z,15.30
2023-05-10T06:21:34.885Z,15.40
2023-05-10T06:24:01.505Z,15.40
2023-05-10T06:26:28.130Z,15.50
2023-05-10T06:28:54.739Z,15.50
2023-05-10T06:31:21.920Z,15.50
2023-05-10T06:33:48.596Z,15.50
2023-05-10T06:36:15.427Z,15.40
2023-05-10T06:38:42.075Z,15.40
2023-05-10T06:41:09.119Z,15.40
2023-05-10T06:43:35.946Z,15.40
2023-05-10T06:46:02.639Z,15.40
2023-05-10T06:48:29.445Z,15.40
2023-05-10T06:50:56.131Z,15.40
2023-05-10T06:53:22.886Z,15.40
2023-05-10T06:55:50.560Z,15.40
2023-05-10T06:58:17.453Z,15.30
2023-05-10T07:00:44.806Z,15.30
2023-05-10T07:03:12.002Z,15.20
2023-05-10T07:05:38.804Z,15.20
2023-05-10T07:08:05.551Z,15.30
2023-05-10T07:10:32.154Z,15.40
2023-05-10T07:12:58.857Z,15.50
2023-05-10T07:15:25.538Z,15.60
2023-05-10T07:17:53.050Z,15.80
2023-05-10T07:20:20.000Z,15.80
2023-05-10T07:22:46.602Z,15.90
2023-05-10T07:25:13.247Z,16.00
2023-05-10T07:27:39.905Z,16.10
2023-05-10T07:30:07.080Z,16.40
2023-05-10T07:32:33.918Z,16.60
2023-05-10T07:35:01.104Z,16.80
2023-05-10T07:37:27.797Z,17.00
2023-05-10T07:39:54.376Z,17.20
2023-05-10T07:42:21.013Z,17.30
2023-05-10T07:44:48.141Z,17.40
2023-05-10T07:47:14.755Z,17.50
2023-05-10T07:49:41.766Z,17.60
2023-05-10T07:52:08.378Z,17.60
2023-05-10T07:54:35.047Z,17.70
2023-05-10T07:57:01.812Z,17.70
2023-05-10T07:59:28.427Z,17.70
2023-05-10T08:01:55.075Z,17.60
2023-05-10T08:04:21.891Z,17.80
2023-05-10T08:06:48.543Z,17.80
2023-05-10T08:09:15.197Z,17.90
2023-05-10T08:11:41.891Z,18.00
2023-05-10T08:14:08.494Z,18.10
2023-05-10T08:16:35.428Z,18.00
2023-05-10T08:19:02.535Z,18.10
2023-05-10T08:21:29.359Z,18.10
2023-05-10T08:23:56.233Z,18.20
2023-05-10T08:26:22.892Z,18.20
2023-05-10T08:28:49.655Z,18.20
2023-05-10T08:31:16.623Z,18.10
2023-05-10T08:33:44.597Z,18.10
2023-05-10T08:36:12.049Z,18.10
2023-05-10T08:38:38.920Z,18.00
2023-05-10T08:41:06.886Z,18.00
2023-05-10T08:43:34.439Z,17.90
2023-05-10T08:46:06.494Z,17.90
2023-05-10T08:48:35.517Z,17.90
2023-05-10T08:51:04.554Z,17.90
2023-05-10T08:53:33.833Z,17.80
2023-05-10T08:56:02.203Z,17.80
2023-05-10T08:58:29.156Z,17.80
2023-05-10T09:00:56.549Z,17.70
2023-05-10T09:03:23.236Z,17.70
2023-05-10T09:05:50.391Z,17.60
2023-05-10T09:08:18.268Z,17.40
2023-05-10T09:10:47.982Z,17.30
2023-05-10T09:13:16.265Z,17.40
2023-05-10T09:15:45.972Z,17.40
2023-05-10T09:18:13.098Z,17.50
2023-05-10T09:20:39.817Z,17.70
2023-05-10T09:23:06.811Z,17.80
2023-05-10T09:25:36.583Z,17.90
2023-05-10T09:28:06.777Z,18.10
2023-05-10T09:30:33.420Z,18.00
2023-05-10T09:33:00.794Z,18.10
2023-05-10T09:35:30.272Z,18.00
2023-05-10T09:38:00.756Z,17.90
2023-05-10T09:40:30.352Z,17.90
2023-05-10T09:43:02.181Z,17.80
2023-05-10T09:45:31.338Z,17.80
2023-05-10T09:47:58.921Z,17.80
2023-05-10T09:50:26.154Z,17.90
2023-05-10T09:53:01.149Z,18.10
2023-05-10T09:55:39.388Z,18.20
2023-05-10T09:58:10.388Z,18.30
2023-05-10T10:00:42.339Z,18.40
2023-05-10T10:03:21.000Z,18.60
2023-05-10T10:05:48.834Z,18.60
2023-05-10T10:08:17.539Z,18.60
2023-05-10T10:10:46.915Z,18.80
2023-05-10T10:13:14.116Z,18.90
2023-05-10T10:15:40.907Z,19.20
2023-05-10T10:18:08.866Z,19.40
2023-05-10T10:20:38.510Z,19.70
2023-05-10T10:23:05.121Z,20.00
2023-05-10T10:25:31.960Z,20.20
2023-05-10T10:28:12.018Z,20.30
2023-05-10T10:30:47.888Z,20.40
2023-05-10T10:33:52.192Z,20.30
2023-05-10T10:36:19.796Z,20.00
2023-05-10T10:38:49.478Z,19.60
2023-05-10T10:41:31.186Z,19.20
2023-05-10T10:44:27.317Z,18.90
2023-05-10T10:47:14.868Z,18.60
2023-05-10T10:49:44.361Z,18.40
2023-05-10T10:52:23.972Z,18.30
2023-05-10T10:55:01.477Z,18.20
2023-05-10T10:57:31.119Z,18.10
2023-05-10T11:00:24.013Z,17.90
2023-05-10T11:02:55.347Z,17.60
2023-05-10T11:05:33.791Z,17.70
2023-05-10T11:08:01.527Z,17.60
2023-05-10T11:10:28.489Z,17.60
2023-05-10T11:13:02.607Z,17.80
2023-05-10T11:15:33.645Z,17.90
2023-05-10T11:18:00.759Z,18.10
2023-05-10T11:20:40.515Z,18.20
2023-05-10T11:23:16.814Z,18.50
2023-05-10T11:25:45.187Z,18.70
2023-05-10T11:28:15.364Z,19.00
2023-05-10T11:30:45.018Z,19.00
2023-05-10T11:33:17.043Z,19.20
2023-05-10T11:35:43.866Z,19.30
2023-05-10T11:38:14.946Z,19.40
2023-05-10T11:40:42.224Z,19.80
2023-05-10T11:43:11.042Z,20.00
2023-05-10T11:45:38.331Z,20.00
2023-05-10T11:48:05.274Z,20.10
2023-05-10T11:50:32.010Z,20.40
2023-05-10T11:52:59.714Z,20.70
2023-05-10T11:55:26.461Z,21.10
2023-05-10T11:57:53.985Z,21.40
2023-05-10T12:00:21.114Z,21.90
2023-05-10T12:02:49.071Z,22.30
2023-05-10T12:05:16.227Z,22.50
2023-05-10T12:07:42.884Z,22.60
2023-05-10T12:10:10.689Z,22.70
2023-05-10T12:12:45.071Z,22.70
2023-05-10T12:15:13.728Z,22.70
2023-05-10T12:17:43.950Z,22.90
2023-05-10T12:20:18.512Z,22.90
2023-05-10T12:22:47.987Z,22.90
2023-05-10T12:25:14.696Z,22.70
2023-05-10T12:27:42.206Z,22.80
2023-05-10T12:30:09.387Z,22.50
2023-05-10T12:32:40.401Z,22.50
2023-05-10T12:35:07.823Z,22.70
2023-05-10T12:37:39.428Z,22.80
2023-05-10T12:40:11.778Z,23.10
2023-05-10T12:42:39.848Z,23.40
2023-05-10T12:45:08.396Z,23.10
2023-05-10T12:47:35.368Z,22.90
2023-05-10T12:50:03.571Z,23.00
2023-05-10T12:52:30.886Z,23.30
2023-05-10T12:54:57.542Z,23.30
2023-05-10T12:57:24.451Z,23.40
2023-05-10T12:59:51.125Z,23.40
2023-05-10T13:02:21.971Z,23.30
2023-05-10T13:04:51.006Z,23.30
2023-05-10T13:07:17.890Z,23.70
2023-05-10T13:09:44.607Z,23.80
2023-05-10T13:12:11.280Z,23.80
2023-05-10T13:14:38.169Z,23.70
2023-05-10T13:17:04.979Z,23.70
2023-05-10T13:19:31.713Z,23.80
2023-05-10T13:21:58.934Z,23.70
2023-05-10T13:24:25.711Z,23.40
2023-05-10T13:26:52.491Z,23.20
2023-05-10T13:29:20.101Z,22.80
2023-05-10T13:31:46.976Z,22.70
2023-05-10T13:34:13.673Z,22.50
2023-05-10T13:36:40.424Z,22.40
2023-05-10T13:39:07.156Z,22.40
2023-05-10T13:41:34.159Z,22.30
2023-05-10T13:44:00.984Z,22.30
2023-05-10T13:46:27.661Z,22.30
2023-05-10T13:48:54.396Z,22.70
2023-05-10T13:51:21.059Z,22.70
2023-05-10T13:53:48.107Z,22.70
2023-05-10T13:56:15.173Z,23.00
2023-05-10T13:58:42.282Z,23.00
2023-05-10T14:01:08.980Z,23.00
2023-05-10T14:03:35.749Z,23.00
2023-05-10T14:06:02.482Z,23.10
2023-05-10T14:08:29.218Z,23.20
2023-05-10T14:10:57.346Z,23.30
2023-05-10T14:13:24.703Z,23.30
2023-05-10T14:15:51.845Z,23.50
2023-05-10T14:18:18.523Z,23.60
2023-05-10T14:20:45.422Z,23.60
2023-05-10T14:23:12.610Z,23.60
2023-05-10T14:25:42.720Z,23.50
2023-05-10T14:28:09.439Z,23.40
2023-05-10T14:30:36.267Z,23.20
2023-05-10T14:33:03.491Z,23.10
2023-05-10T14:35:32.034Z,22.90
2023-05-10T14:37:59.630Z,22.70
2023-05-10T14:40:26.958Z,22.60
2023-05-10T14:42:54.001Z,22.40
2023-05-10T14:45:21.929Z,22.20
2023-05-10T14:47:48.624Z,22.10
2023-05-10T14:50:24.993Z,21.90
2023-05-10T14:53:01.676Z,21.80
2023-05-10T14:55:28.419Z,21.60
2023-05-10T14:57:55.331Z,21.40
2023-05-10T15:00:22.532Z,21.40
2023-05-10T15:02:49.919Z,21.20
2023-05-10T15:05:17.431Z,21.20
2023-05-10T15:07:44.738Z,21.10
2023-05-10T15:10:12.334Z,21.10
2023-05-10T15:12:39.281Z,21.10
2023-05-10T15:15:07.108Z,21.10
2023-05-10T15:17:34.134Z,20.90
2023-05-10T15:20:02.914Z,20.70
2023-05-10T15:22:30.233Z,20.70
2023-05-10T15:24:57.709Z,20.40
2023-05-10T15:27:24.318Z,20.30
2023-05-10T15:29:51.152Z,20.10
2023-05-10T15:32:17.842Z,20.10
2023-05-10T15:34:44.473Z,19.80
2023-05-10T15:37:11.153Z,19.60
2023-05-10T15:39:37.913Z,19.60
2023-05-10T15:42:04.990Z,19.50
2023-05-10T15:44:31.738Z,19.50
2023-05-10T15:46:58.482Z,19.40
2023-05-10T15:49:25.199Z,19.40
2023-05-10T15:51:52.063Z,19.40
2023-05-10T15:54:18.876Z,19.60
2023-05-10T15:56:45.562Z,19.60
2023-05-10T15:59:12.235Z,19.60
2023-05-10T16:01:38.988Z,19.60
2023-05-10T16:04:05.825Z,19.60
2023-05-10T16:06:32.742Z,19.50
2023-05-10T16:08:59.497Z,19.50
2023-05-10T16:11:26.215Z,19.50
2023-05-10T16:13:53.023Z,19.60
2023-05-10T16:16:19.751Z,19.60
2023-05-10T16:18:46.539Z,19.70
2023-05-10T16:21:13.292Z,19.80
2023-05-10T16:23:40.191Z,19.80
2023-05-10T16:26:07.461Z,19.90
2023-05-10T16:28:34.220Z,20.00
2023-05-10T16:31:00.962Z,20.10
2023-05-10T16:33:27.627Z,20.20
2023-05-10T16:35:54.240Z,20.20
2023-05-10T16:38:21.804Z,20.10
2023-05-10T16:40:48.622Z,20.20
2023-05-10T16:43:15.237Z,20.30
2023-05-10T16:45:42.293Z,20.30
2023-05-10T16:48:09.189Z,20.20
2023-05-10T16:50:35.882Z,20.20
2023-05-10T16:53:02.990Z,20.20
2023-05-10T16:55:29.637Z,20.20
2023-05-10T16:57:59.723Z,20.10
2023-05-10T17:00:27.316Z,20.00
2023-05-10T17:02:54.822Z,19.80
2023-05-10T17:05:22.362Z,19.70
2023-05-10T17:07:49.398Z,19.70
2023-05-10T17:10:16.584Z,19.60
2023-05-10T17:12:43.481Z,19.50
2023-05-10T17:15:10.509Z,19.40
2023-05-10T17:17:37.521Z,19.40
2023-05-10T17:20:04.957Z,19.40
2023-05-10T17:22:31.626Z,19.40
2023-05-10T17:24:58.278Z,19.40
2023-05-10T17:27:25.019Z,19.40
2023-05-10T17:29:59.105Z,19.40
2023-05-10T17:32:26.103Z,19.30
2023-05-10T17:34:52.781Z,19.30
2023-05-10T17:37:19.377Z,19.30
2023-05-10T17:39:46.398Z,19.20
2023-05-10T17:42:14.728Z,19.10
2023-05-10T17:44:41.355Z,19.00
2023-05-10T17:47:07.983Z,19.00
2023-05-10T17:49:34.608Z,19.00
2023-05-10T17:52:01.268Z,18.90
2023-05-10T17:54:27.859Z,18.90
2023-05-10T17:56:54.550Z,18.80
2023-05-10T17:59:21.587Z,18.70
2023-05-10T18:01:48.273Z,18.60
2023-05-10T18:04:14.976Z,18.50
2023-05-10T18:06:41.707Z,18.50
2023-05-10T18:09:08.425Z,18.40
2023-05-10T18:11:36.146Z,18.30
2023-05-10T18:14:02.770Z,18.20
2023-05-10T18:16:29.402Z,18.10
2023-05-10T18:18:56.596Z,18.10
2023-05-10T18:21:23.392Z,18.00
2023-05-10T18:23:50.018Z,18.00
2023-05-10T18:26:18.118Z,17.90
2023-05-10T18:28:44.830Z,17.90
2023-05-10T18:31:12.477Z,17.90
2023-05-10T18:33:39.172Z,17.90
2023-05-10T18:36:05.878Z,17.80
2023-05-10T18:38:32.634Z,17.70
2023-05-10T18:40:59.285Z,17.60
2023-05-10T18:43:25.885Z,17.50
2023-05-10T18:45:52.779Z,17.40
2023-05-10T18:48:19.447Z,17.40
2023-05-10T18:50:46.058Z,17.30
2023-05-10T18:53:12.827Z,17.20
2023-05-10T18:55:39.804Z,17.10
2023-05-10T18:58:06.381Z,17.00
2023-05-10T19:00:33.046Z,16.90
2023-05-10T19:02:59.753Z,16.80
2023-05-10T19:05:30.016Z,16.80
2023-05-10T19:07:56.899Z,16.70
2023-05-10T19:10:23.599Z,16.60
2023-05-10T19:12:50.613Z,16.50
2023-05-10T19:15:19.200Z,16.40
2023-05-10T19:17:46.794Z,16.40
2023-05-10T19:20:15.223Z,16.30
2023-05-10T19:22:54.354Z,16.20
2023-05-10T19:25:31.999Z,16.10
2023-05-10T19:27:58.731Z,16.00
2023-05-10T19:30:26.252Z,16.00
2023-05-10T19:32:52.990Z,15.90
2023-05-10T19:35:19.874Z,15.80
2023-05-10T19:37:47.384Z,15.80
2023-05-10T19:40:15.906Z,15.70
2023-05-10T19:42:42.739Z,15.60
2023-05-10T19:45:10.042Z,15.50
2023-05-10T19:47:37.196Z,15.50
2023-05-10T19:50:04.536Z,15.50
2023-05-10T19:52:31.575Z,15.40
2023-05-10T19:54:58.179Z,15.30
2023-05-10T19:57:25.061Z,15.20
2023-05-10T19:59:51.742Z,15.10
2023-05-10T20:02:18.420Z,15.10
2023-05-10T20:04:45.112Z,15.00
2023-05-10T20:07:12.255Z,14.90
2023-05-10T20:09:38.865Z,14.80
2023-05-10T20:12:05.503Z,14.70
2023-05-10T20:14:32.188Z,14.70
2023-05-10T20:16:58.798Z,14.60
2023-05-10T20:19:28.128Z,14.60
2023-05-10T20:21:56.091Z,14.50
2023-05-10T20:24:22.826Z,14.50
2023-05-10T20:26:49.458Z,14.50
2023-05-10T20:29:16.321Z,14.40
2023-05-10T20:31:43.009Z,14.30
2023-05-10T20:34:09.799Z,14.10
2023-05-10T20:36:36.390Z,14.20
2023-05-10T20:39:03.285Z,14.20
2023-05-10T20:41:29.907Z,14.20
2023-05-10T20:43:56.539Z,14.20
2023-05-10T20:46:23.750Z,14.10
2023-05-10T20:48:50.392Z,14.10
2023-05-10T20:51:17.924Z,14.10
2023-05-10T20:53:44.748Z,14.10
2023-05-10T20:56:11.357Z,14.10
2023-05-10T20:58:37.949Z,14.10
2023-05-10T21:01:04.597Z,14.00
2023-05-10T21:03:31.226Z,14.00
2023-05-10T21:05:57.867Z,14.00
2023-05-10T21:08:24.507Z,14.00
2023-05-10T21:10:51.166Z,13.90
2023-05-10T21:13:17.790Z,13.90
2023-05-10T21:15:44.456Z,13.90
2023-05-10T21:18:11.153Z,13.90
2023-05-10T21:20:37.786Z,13.90
2023-05-10T21:23:04.486Z,13.80
2023-05-10T21:25:31.095Z,13.80
2023-05-10T21:27:57.750Z,13.80
2023-05-10T21:30:24.557Z,13.80
2023-05-10T21:32:51.265Z,13.80
2023-05-10T21:35:18.030Z,13.70
2023-05-10T21:37:44.639Z,13.60
2023-05-10T21:40:12.111Z,13.60
2023-05-10T21:42:38.852Z,13.50
2023-05-10T21:45:06.026Z,13.50
2023-05-10T21:47:32.644Z,13.40
2023-05-10T21:50:00.005Z,13.40
2023-05-10T21:52:27.044Z,13.30
2023-05-10T21:54:53.655Z,13.30
2023-05-10T21:57:21.479Z,13.20
2023-05-10T21:59:48.107Z,13.20
2023-05-10T22:02:14.778Z,13.00
2023-05-10T22:04:41.415Z,12.90
2023-05-10T22:07:08.032Z,12.90
2023-05-10T22:09:34.648Z,12.80
2023-05-10T22:12:01.258Z,12.80
2023-05-10T22:14:27.912Z,12.80
2023-05-10T22:16:54.654Z,12.70
2023-05-10T22:19:21.271Z,12.70
2023-05-10T22:21:47.882Z,12.80
2023-05-10T22:24:14.636Z,12.80
2023-05-10T22:26:41.353Z,12.80
2023-05-10T22:29:07.967Z,12.80
2023-05-10T22:31:34.802Z,12.70
2023-05-10T22:34:01.889Z,12.70
2023-05-10T22:36:29.058Z,12.70
2023-05-10T22:38:55.684Z,12.60
2023-05-10T22:41:22.845Z,12.60
2023-05-10T22:43:49.837Z,12.60
2023-05-10T22:46:16.616Z,12.60
2023-05-10T22:48:43.664Z,12.60
2023-05-10T22:51:10.430Z,12.50
2023-05-10T22:53:37.038Z,12.50
2023-05-10T22:56:03.740Z,12.40
2023-05-10T22:58:31.279Z,12.40
2023-05-10T23:00:58.350Z,12.40
2023-05-10T23:03:25.070Z,12.40
2023-05-10T23:05:51.844Z,12.30
2023-05-10T23:08:18.486Z,12.30
2023-05-10T23:10:45.123Z,12.30
2023-05-10T23:13:11.781Z,12.20
2023-05-10T23:15:40.042Z,12.20
2023-05-10T23:18:06.862Z,12.10
2023-05-10T23:20:33.523Z,12.10
2023-05-10T23:23:00.381Z,12.10
2023-05-10T23:25:27.056Z,12.10
2023-05-10T23:27:53.675Z,12.10
2023-05-10T23:30:20.323Z,12.10
2023-05-10T23:32:47.115Z,12.10
2023-05-10T23:35:13.743Z,12.10
2023-05-10T23:37:41.979Z,12.20
2023-05-10T23:40:09.265Z,12.10
2023-05-10T23:42:35.986Z,12.10
2023-05-10T23:45:02.943Z,12.10
2023-05-10T23:47:29.636Z,12.10
2023-05-10T23:49:56.316Z,12.10
2023-05-10T23:52:24.945Z,12.10
2023-05-10T23:54:52.080Z,12.10
2023-05-10T23:57:19.225Z,12.10
2023-05-10T23:59:46.456Z,12.10
